createdAt,value
2022-11-14T00:01:20.212Z,8.07
2022-11-14T00:03:51.051Z,6.50
2022-11-14T00:06:19.090Z,8.93
2022-11-14T00:08:47.023Z,6.20
2022-11-14T00:11:14.968Z,8.03
2022-11-14T00:13:42.889Z,4.87
2022-11-14T00:16:12.182Z,8.37
2022-11-14T00:18:40.136Z,5.83
2022-11-14T00:21:08.261Z,4.30
2022-11-14T00:23:36.213Z,4.67
2022-11-14T00:26:04.138Z,4.80
2022-11-14T00:28:32.296Z,6.20
2022-11-14T00:31:00.492Z,7.33
2022-11-14T00:33:29.805Z,9.13
2022-11-14T00:35:58.538Z,6.33
2022-11-14T00:38:26.576Z,7.47
2022-11-14T00:40:54.667Z,7.07
2022-11-14T00:43:22.771Z,7.23
2022-11-14T00:45:50.705Z,4.87
2022-11-14T00:48:18.708Z,6.43
2022-11-14T00:50:48.008Z,6.70
2022-11-14T00:53:17.169Z,6.23
2022-11-14T00:55:45.119Z,6.97
2022-11-14T00:58:13.055Z,5.80
2022-11-14T01:00:41.137Z,5.97
2022-11-14T01:03:09.151Z,5.17
2022-11-14T01:05:42.357Z,5.10
2022-11-14T01:08:12.306Z,8.17
2022-11-14T01:10:41.868Z,9.73
2022-11-14T01:13:09.984Z,9.10
2022-11-14T01:15:40.620Z,7.00
2022-11-14T01:18:08.695Z,5.87
2022-11-14T01:20:39.110Z,5.90
2022-11-14T01:23:07.092Z,6.30
2022-11-14T01:25:37.030Z,3.73
2022-11-14T01:28:08.058Z,6.07
2022-11-14T01:30:36.604Z,5.43
2022-11-14T01:33:05.157Z,6.47
2022-11-14T01:35:33.625Z,5.53
2022-11-14T01:38:01.665Z,5.70
2022-11-14T01:40:30.111Z,4.57
2022-11-14T01:43:30.852Z,4.93
2022-11-14T01:46:01.736Z,5.70
2022-11-14T01:48:38.337Z,4.20
2022-11-14T01:51:17.011Z,5.30
2022-11-14T01:53:46.885Z,6.17
2022-11-14T01:56:18.376Z,6.80
2022-11-14T01:58:51.266Z,6.63
2022-11-14T02:01:19.302Z,5.77
2022-11-14T02:03:49.531Z,5.37
2022-11-14T02:06:20.342Z,7.97
2022-11-14T02:08:49.699Z,7.50
2022-11-14T02:11:17.656Z,5.57
2022-11-14T02:13:47.230Z,7.27
2022-11-14T02:16:15.667Z,7.27
2022-11-14T02:18:43.631Z,8.10
2022-11-14T02:21:13.002Z,6.07
2022-11-14T02:23:40.946Z,5.70
2022-11-14T02:26:08.883Z,6.33
2022-11-14T02:28:36.881Z,7.50
2022-11-14T02:31:05.012Z,8.27
2022-11-14T02:33:32.941Z,6.60
2022-11-14T02:36:00.865Z,7.37
2022-11-14T02:38:30.482Z,6.13
2022-11-14T02:41:00.575Z,7.07
2022-11-14T02:43:28.568Z,7.37
2022-11-14T02:45:59.126Z,7.80
2022-11-14T02:48:29.642Z,7.20
2022-11-14T02:50:57.960Z,8.43
2022-11-14T02:53:25.947Z,7.47
2022-11-14T02:55:55.221Z,7.30
2022-11-14T02:58:23.198Z,7.10
2022-11-14T03:01:18.563Z,6.83
2022-11-14T03:03:39.133Z,8.33
2022-11-14T03:06:07.488Z,6.80
2022-11-14T03:08:35.426Z,8.67
2022-11-14T03:11:07.240Z,5.70
2022-11-14T03:13:35.563Z,7.30
2022-11-14T03:16:08.025Z,7.50
2022-11-14T03:18:36.425Z,7.57
2022-11-14T03:21:07.935Z,7.50
2022-11-14T03:23:35.917Z,7.87
2022-11-14T03:26:04.857Z,4.80
2022-11-14T03:28:34.390Z,4.77
2022-11-14T03:31:02.410Z,5.20
2022-11-14T03:33:30.585Z,5.97
2022-11-14T03:35:58.548Z,8.20
2022-11-14T03:38:26.608Z,7.00
2022-11-14T03:40:55.213Z,8.17
2022-11-14T03:43:23.312Z,8.07
2022-11-14T03:45:52.674Z,7.40
2022-11-14T03:48:20.616Z,6.10
2022-11-14T03:50:48.560Z,6.30
2022-11-14T03:53:17.677Z,6.60
2022-11-14T03:55:45.920Z,6.90
2022-11-14T03:58:13.872Z,8.80
2022-11-14T04:00:41.921Z,6.60
2022-11-14T04:03:11.410Z,5.47
2022-11-14T04:05:39.408Z,4.80
2022-11-14T04:08:07.777Z,6.83
2022-11-14T04:10:38.452Z,7.07
2022-11-14T04:13:06.710Z,6.07
2022-11-14T04:15:35.062Z,7.73
2022-11-14T04:18:03.009Z,9.63
2022-11-14T04:20:32.396Z,8.43
2022-11-14T04:23:00.373Z,6.40
2022-11-14T04:25:28.345Z,6.50
2022-11-14T04:27:56.328Z,6.57
2022-11-14T04:30:28.725Z,6.43
2022-11-14T04:33:00.094Z,6.40
2022-11-14T04:35:28.052Z,6.17
2022-11-14T04:37:57.409Z,4.70
2022-11-14T04:40:25.378Z,8.10
2022-11-14T04:42:53.355Z,7.33
2022-11-14T04:45:21.342Z,9.50
2022-11-14T04:47:49.282Z,6.20
2022-11-14T04:50:17.290Z,7.13
2022-11-14T04:52:45.783Z,6.23
2022-11-14T04:55:15.120Z,6.80
2022-11-14T04:57:43.067Z,7.10
2022-11-14T05:00:12.343Z,9.23
2022-11-14T05:02:40.271Z,6.27
2022-11-14T05:05:08.885Z,5.90
2022-11-14T05:07:36.939Z,7.70
2022-11-14T05:10:05.361Z,6.33
2022-11-14T05:12:34.718Z,8.30
2022-11-14T05:15:02.671Z,6.43
2022-11-14T05:17:30.612Z,5.57
2022-11-14T05:19:58.536Z,10.93
2022-11-14T05:22:26.475Z,5.93
2022-11-14T05:24:54.444Z,8.00
2022-11-14T05:27:22.399Z,10.30
2022-11-14T05:29:51.721Z,8.43
2022-11-14T05:32:19.667Z,7.10
2022-11-14T05:34:47.600Z,8.90
2022-11-14T05:37:15.638Z,8.40
2022-11-14T05:39:43.588Z,6.67
2022-11-14T05:42:11.581Z,4.53
2022-11-14T05:44:39.517Z,7.00
2022-11-14T05:47:08.819Z,5.80
2022-11-14T05:49:36.771Z,6.73
2022-11-14T05:52:04.987Z,6.67
2022-11-14T05:54:32.963Z,5.67
2022-11-14T05:57:00.921Z,5.43
2022-11-14T05:59:30.026Z,6.20
2022-11-14T06:01:58.142Z,6.57
2022-11-14T06:04:27.555Z,6.17
2022-11-14T06:06:58.673Z,5.80
2022-11-14T06:09:26.714Z,6.60
2022-11-14T06:11:54.656Z,8.10
2022-11-14T06:14:22.663Z,6.97
2022-11-14T06:16:50.717Z,8.23
2022-11-14T06:19:18.813Z,9.07
2022-11-14T06:21:48.143Z,8.53
2022-11-14T06:24:16.161Z,9.03
2022-11-14T06:26:46.748Z,8.57
2022-11-14T06:29:14.822Z,9.60
2022-11-14T06:31:42.814Z,11.97
2022-11-14T06:34:12.696Z,9.27
2022-11-14T06:36:40.714Z,6.90
2022-11-14T06:39:10.209Z,6.50
2022-11-14T06:41:41.238Z,9.50
2022-11-14T06:44:10.223Z,8.10
2022-11-14T06:46:38.190Z,8.80
2022-11-14T06:49:06.283Z,6.90
2022-11-14T06:51:34.280Z,6.83
2022-11-14T06:54:05.458Z,6.43
2022-11-14T06:56:35.375Z,7.50
2022-11-14T06:59:03.576Z,8.23
2022-11-14T07:01:31.616Z,8.20
2022-11-14T07:04:00.617Z,11.27
2022-11-14T07:06:32.062Z,9.40
2022-11-14T07:09:00.894Z,7.87
2022-11-14T07:11:30.109Z,8.03
2022-11-14T07:14:00.621Z,9.30
2022-11-14T07:16:30.464Z,10.97
2022-11-14T07:18:59.332Z,10.67
2022-11-14T07:21:27.859Z,8.83
2022-11-14T07:23:56.096Z,11.43
2022-11-14T07:26:24.749Z,11.07
2022-11-14T07:28:56.598Z,9.90
2022-11-14T07:31:31.161Z,10.80
2022-11-14T07:33:59.127Z,9.93
2022-11-14T07:36:29.680Z,9.53
2022-11-14T07:39:00.229Z,10.83
2022-11-14T07:41:28.180Z,12.00
2022-11-14T07:43:57.152Z,9.07
2022-11-14T07:46:25.126Z,15.93
2022-11-14T07:48:54.426Z,11.57
2022-11-14T07:51:22.528Z,10.00
2022-11-14T07:53:53.530Z,10.47
2022-11-14T07:56:22.240Z,9.43
2022-11-14T07:58:50.206Z,8.37
2022-11-14T08:01:18.262Z,8.53
2022-11-14T08:03:46.516Z,8.70
2022-11-14T08:06:17.946Z,8.57
2022-11-14T08:08:45.970Z,5.70
2022-11-14T08:11:23.076Z,3.83
2022-11-14T08:14:01.915Z,3.20
2022-11-14T08:16:29.890Z,3.70
2022-11-14T08:18:57.842Z,3.37
2022-11-14T08:21:27.332Z,3.30
2022-11-14T08:23:55.311Z,3.73
2022-11-14T08:26:23.358Z,4.30
2022-11-14T08:28:54.572Z,3.87
2022-11-14T08:31:23.165Z,3.20
2022-11-14T08:33:52.667Z,3.90
2022-11-14T08:36:20.634Z,4.27
2022-11-14T08:38:51.688Z,3.07
2022-11-14T08:41:20.020Z,3.37
2022-11-14T08:43:47.968Z,3.70
2022-11-14T08:46:15.901Z,2.20
2022-11-14T08:48:43.884Z,2.50
2022-11-14T08:51:12.153Z,2.40
2022-11-14T08:53:40.152Z,3.53
2022-11-14T08:56:10.565Z,2.67
2022-11-14T08:58:38.543Z,3.13
2022-11-14T09:01:08.322Z,2.90
2022-11-14T09:03:36.507Z,2.13
2022-11-14T09:06:05.145Z,2.17
2022-11-14T09:08:34.306Z,3.30
2022-11-14T09:11:05.147Z,2.87
2022-11-14T09:13:35.897Z,2.53
2022-11-14T09:16:04.013Z,2.93
2022-11-14T09:18:32.500Z,3.30
2022-11-14T09:21:02.179Z,2.63
2022-11-14T09:23:30.649Z,2.97
2022-11-14T09:25:58.904Z,2.30
2022-11-14T09:28:26.892Z,3.10
2022-11-14T09:31:01.433Z,3.57
2022-11-14T09:33:29.950Z,4.33
2022-11-14T09:35:58.973Z,4.30
2022-11-14T09:38:27.271Z,3.43
2022-11-14T09:41:07.511Z,2.80
2022-11-14T09:43:48.965Z,3.43
2022-11-14T09:46:24.619Z,3.70
2022-11-14T09:48:53.738Z,3.30
2022-11-14T09:51:23.913Z,5.00
2022-11-14T09:53:56.718Z,5.30
2022-11-14T09:56:27.211Z,4.17
2022-11-14T09:58:56.513Z,3.77
2022-11-14T10:01:32.267Z,3.43
2022-11-14T10:04:10.749Z,5.67
2022-11-14T10:06:47.973Z,5.50
2022-11-14T10:09:45.138Z,4.50
2022-11-14T10:12:17.408Z,3.53
2022-11-14T10:15:12.636Z,3.93
2022-11-14T10:17:54.126Z,6.00
2022-11-14T10:20:29.627Z,4.93
2022-11-14T10:23:08.153Z,5.37
2022-11-14T10:25:48.188Z,6.13
2022-11-14T10:28:34.825Z,2.63
2022-11-14T10:31:09.520Z,3.40
2022-11-14T10:33:50.924Z,4.10
2022-11-14T10:36:27.681Z,4.37
2022-11-14T10:39:04.776Z,4.03
2022-11-14T10:41:56.201Z,3.00
2022-11-14T10:44:27.569Z,2.60
2022-11-14T10:46:59.234Z,2.77
2022-11-14T10:49:36.137Z,2.90
2022-11-14T10:52:08.556Z,2.40
2022-11-14T10:54:43.410Z,2.60
2022-11-14T10:57:17.550Z,2.93
2022-11-14T10:59:45.598Z,2.53
2022-11-14T11:02:13.828Z,3.00
2022-11-14T11:04:44.124Z,1.50
2022-11-14T11:07:39.788Z,2.60
2022-11-14T11:10:26.117Z,2.33
2022-11-14T11:12:56.132Z,2.53
2022-11-14T11:15:25.705Z,2.20
2022-11-14T11:17:58.424Z,1.93
2022-11-14T11:20:31.295Z,1.73
2022-11-14T11:23:07.045Z,2.03
2022-11-14T11:25:36.086Z,1.70
2022-11-14T11:28:12.114Z,1.37
2022-11-14T11:30:40.844Z,1.43
2022-11-14T11:33:24.195Z,1.80
2022-11-14T11:35:57.230Z,1.40
2022-11-14T11:38:27.759Z,1.50
2022-11-14T11:41:00.422Z,2.20
2022-11-14T11:43:50.303Z,2.47
2022-11-14T11:46:30.291Z,1.43
2022-11-14T11:49:06.917Z,1.13
2022-11-14T11:51:41.296Z,1.50
2022-11-14T11:54:16.384Z,2.10
2022-11-14T11:56:45.883Z,2.60
2022-11-14T11:59:27.850Z,2.60
2022-11-14T12:01:56.384Z,2.13
2022-11-14T12:04:24.417Z,1.70
2022-11-14T12:07:00.918Z,3.10
2022-11-14T12:10:03.668Z,2.10
2022-11-14T12:12:35.898Z,2.00
2022-11-14T12:15:16.290Z,1.80
2022-11-14T12:18:16.649Z,1.20
2022-11-14T12:21:05.065Z,1.87
2022-11-14T12:24:07.472Z,1.37
2022-11-14T12:27:10.083Z,1.90
2022-11-14T12:29:57.931Z,1.23
2022-11-14T12:32:32.936Z,1.90
2022-11-14T12:35:04.296Z,1.47
2022-11-14T12:37:35.656Z,1.60
2022-11-14T12:40:07.797Z,1.67
2022-11-14T12:42:36.648Z,2.00
2022-11-14T12:45:05.068Z,1.10
2022-11-14T12:47:33.061Z,1.87
2022-11-14T12:50:26.809Z,1.67
2022-11-14T12:52:55.022Z,2.00
2022-11-14T12:55:59.607Z,1.43
2022-11-14T12:58:49.126Z,2.33
2022-11-14T13:01:42.495Z,2.50
2022-11-14T13:04:27.080Z,2.47
2022-11-14T13:07:09.127Z,1.57
2022-11-14T13:09:54.310Z,1.80
2022-11-14T13:12:51.073Z,1.80
2022-11-14T13:15:49.534Z,1.90
2022-11-14T13:18:43.533Z,1.80
2022-11-14T13:21:45.466Z,2.03
2022-11-14T13:24:15.983Z,1.90
2022-11-14T13:26:54.090Z,1.80
2022-11-14T13:29:57.655Z,1.53
2022-11-14T13:33:02.981Z,1.70
2022-11-14T13:35:52.916Z,1.80
2022-11-14T13:38:51.204Z,1.53
2022-11-14T13:41:47.729Z,1.67
2022-11-14T13:44:45.711Z,1.60
2022-11-14T13:47:40.630Z,1.87
2022-11-14T13:50:12.097Z,1.30
2022-11-14T13:52:45.556Z,1.87
2022-11-14T13:55:23.097Z,1.97
2022-11-14T13:58:05.758Z,1.90
2022-11-14T14:00:55.081Z,2.17
2022-11-14T14:03:37.592Z,1.30
2022-11-14T14:06:23.664Z,1.90
2022-11-14T14:09:04.730Z,1.60
2022-11-14T14:11:52.442Z,1.70
2022-11-14T14:14:39.340Z,1.73
2022-11-14T14:17:14.071Z,2.10
2022-11-14T14:19:55.126Z,1.93
2022-11-14T14:22:32.353Z,2.10
2022-11-14T14:25:10.658Z,1.97
2022-11-14T14:27:47.242Z,1.63
2022-11-14T14:30:17.415Z,2.10
2022-11-14T14:32:45.407Z,2.53
2022-11-14T14:35:27.991Z,2.07
2022-11-14T14:37:57.698Z,1.60
2022-11-14T14:40:29.469Z,2.00
2022-11-14T14:42:58.359Z,1.77
2022-11-14T14:45:28.571Z,1.73
2022-11-14T14:48:04.500Z,2.43
2022-11-14T14:50:38.252Z,2.33
2022-11-14T14:53:06.283Z,3.27
2022-11-14T14:55:37.360Z,3.30
2022-11-14T14:58:21.163Z,2.10
2022-11-14T15:00:53.927Z,2.17
2022-11-14T15:03:23.634Z,1.90
2022-11-14T15:05:59.598Z,2.23
2022-11-14T15:08:29.029Z,2.10
2022-11-14T15:11:00.619Z,2.53
2022-11-14T15:13:31.075Z,1.93
2022-11-14T15:15:59.490Z,2.30
2022-11-14T15:18:30.250Z,2.30
2022-11-14T15:21:09.933Z,2.60
2022-11-14T15:23:39.616Z,2.03
2022-11-14T15:26:17.223Z,2.03
2022-11-14T15:28:45.678Z,2.17
2022-11-14T15:31:20.364Z,1.70
2022-11-14T15:34:02.471Z,3.30
2022-11-14T15:36:30.414Z,2.73
2022-11-14T15:39:03.899Z,2.83
2022-11-14T15:41:34.036Z,2.53
2022-11-14T15:44:05.696Z,2.90
2022-11-14T15:46:50.264Z,2.37
2022-11-14T15:49:23.651Z,2.70
2022-11-14T15:51:54.756Z,2.90
2022-11-14T15:54:25.531Z,2.20
2022-11-14T15:56:56.537Z,2.43
2022-11-14T15:59:25.134Z,2.70
2022-11-14T16:01:57.312Z,2.70
2022-11-14T16:04:29.261Z,3.20
2022-11-14T16:06:57.285Z,3.00
2022-11-14T16:09:25.284Z,3.90
2022-11-14T16:11:54.628Z,2.97
2022-11-14T16:14:23.830Z,2.50
2022-11-14T16:16:51.842Z,2.80
2022-11-14T16:19:21.852Z,2.80
2022-11-14T16:21:50.108Z,2.97
2022-11-14T16:24:20.354Z,2.60
2022-11-14T16:26:48.557Z,3.70
2022-11-14T16:29:20.626Z,2.57
2022-11-14T16:31:48.644Z,3.10
2022-11-14T16:34:19.681Z,2.23
2022-11-14T16:36:48.651Z,3.63
2022-11-14T16:39:16.855Z,3.80
2022-11-14T16:41:44.832Z,4.00
2022-11-14T16:44:18.488Z,3.40
2022-11-14T16:46:47.282Z,4.07
2022-11-14T16:49:16.968Z,3.73
2022-11-14T16:51:48.185Z,4.07
2022-11-14T16:54:20.616Z,3.10
2022-11-14T16:56:49.215Z,3.30
2022-11-14T16:59:18.587Z,3.47
2022-11-14T17:01:48.153Z,3.20
2022-11-14T17:04:19.141Z,4.13
2022-11-14T17:06:47.140Z,3.37
2022-11-14T17:09:15.487Z,3.20
2022-11-14T17:11:44.611Z,3.53
2022-11-14T17:14:12.573Z,4.43
2022-11-14T17:16:41.961Z,4.93
2022-11-14T17:19:09.910Z,3.50
2022-11-14T17:21:37.927Z,2.73
2022-11-14T17:24:06.687Z,2.20
2022-11-14T17:26:34.648Z,1.90
2022-11-14T17:29:02.602Z,2.70
2022-11-14T17:31:36.477Z,2.07
2022-11-14T17:34:09.746Z,2.40
2022-11-14T17:36:37.741Z,3.23
2022-11-14T17:39:05.836Z,3.23
2022-11-14T17:41:35.200Z,2.50
2022-11-14T17:44:03.687Z,2.47
2022-11-14T17:46:32.003Z,2.67
2022-11-14T17:49:00.268Z,2.73
2022-11-14T17:51:29.558Z,2.13
2022-11-14T17:53:57.492Z,2.70
2022-11-14T17:56:27.030Z,2.20
2022-11-14T17:58:55.180Z,1.93
2022-11-14T18:01:24.762Z,3.67
2022-11-14T18:03:52.771Z,5.10
2022-11-14T18:06:21.854Z,3.67
2022-11-14T18:08:51.168Z,5.33
2022-11-14T18:11:22.254Z,5.10
2022-11-14T18:13:54.215Z,7.00
2022-11-14T18:16:31.419Z,8.67
2022-11-14T18:19:03.248Z,9.07
2022-11-14T18:21:31.237Z,9.37
2022-11-14T18:24:01.394Z,5.83
2022-11-14T18:26:30.376Z,5.67
2022-11-14T18:29:00.796Z,7.80
2022-11-14T18:31:32.049Z,11.20
2022-11-14T18:34:00.090Z,11.80
2022-11-14T18:36:28.056Z,10.87
2022-11-14T18:38:57.017Z,13.03
2022-11-14T18:41:26.497Z,13.10
2022-11-14T18:43:55.931Z,10.90
2022-11-14T18:46:27.747Z,10.93
2022-11-14T18:48:57.269Z,7.67
2022-11-14T18:51:28.116Z,7.23
2022-11-14T18:53:57.677Z,7.80
2022-11-14T18:56:27.305Z,11.53
2022-11-14T18:58:57.181Z,13.23
2022-11-14T19:01:29.222Z,13.13
2022-11-14T19:03:59.222Z,11.77
2022-11-14T19:06:31.444Z,10.73
2022-11-14T19:09:04.501Z,12.63
2022-11-14T19:11:54.928Z,10.70
2022-11-14T19:14:23.055Z,13.30
2022-11-14T19:16:51.163Z,12.60
2022-11-14T19:19:19.161Z,11.30
2022-11-14T19:21:49.949Z,11.27
2022-11-14T19:24:18.283Z,9.70
2022-11-14T19:26:47.845Z,10.40
2022-11-14T19:29:15.830Z,4.80
2022-11-14T19:31:44.386Z,3.17
2022-11-14T19:34:15.576Z,2.77
2022-11-14T19:36:59.477Z,2.63
2022-11-14T19:39:28.546Z,3.70
2022-11-14T19:41:57.916Z,4.27
2022-11-14T19:44:25.902Z,3.60
2022-11-14T19:46:53.900Z,4.80
2022-11-14T19:49:21.860Z,6.23
2022-11-14T19:51:50.039Z,5.85
2022-11-14T19:54:18.141Z,3.53
2022-11-14T19:56:46.113Z,3.73
2022-11-14T19:59:17.965Z,4.87
2022-11-14T20:01:48.287Z,4.60
2022-11-14T20:04:16.393Z,5.83
2022-11-14T20:06:44.522Z,7.73
2022-11-14T20:09:12.931Z,4.97
2022-11-14T20:11:41.062Z,6.37
2022-11-14T20:14:11.104Z,5.10
2022-11-14T20:16:40.561Z,6.40
2022-11-14T20:19:08.768Z,8.40
2022-11-14T20:21:38.718Z,6.37
2022-11-14T20:24:07.223Z,5.60
2022-11-14T20:26:35.386Z,4.30
2022-11-14T20:29:04.127Z,3.03
2022-11-14T20:31:32.396Z,3.70
2022-11-14T20:34:01.888Z,2.33
2022-11-14T20:36:44.117Z,2.83
2022-11-14T20:39:18.313Z,2.67
2022-11-14T20:41:46.525Z,2.33
2022-11-14T20:44:15.115Z,3.80
2022-11-14T20:46:43.197Z,4.30
2022-11-14T20:49:12.756Z,4.40
2022-11-14T20:51:40.825Z,4.20
2022-11-14T20:54:10.512Z,4.13
2022-11-14T20:56:38.642Z,4.60
2022-11-14T20:59:08.388Z,4.00
2022-11-14T21:01:42.177Z,4.57
2022-11-14T21:04:13.161Z,3.50
2022-11-14T21:06:41.509Z,2.43
2022-11-14T21:09:11.755Z,2.70
2022-11-14T21:11:39.829Z,2.27
2022-11-14T21:14:09.078Z,2.60
2022-11-14T21:16:39.407Z,2.27
2022-11-14T21:19:08.426Z,2.90
2022-11-14T21:21:39.221Z,2.60
2022-11-14T21:24:08.084Z,2.80
2022-11-14T21:26:40.339Z,3.60
2022-11-14T21:29:11.097Z,4.50
2022-11-14T21:31:41.342Z,4.30
2022-11-14T21:34:12.971Z,2.63
2022-11-14T21:36:45.356Z,2.80
2022-11-14T21:39:15.559Z,2.37
2022-11-14T21:41:44.665Z,2.20
2022-11-14T21:44:14.613Z,2.57
2022-11-14T21:46:43.326Z,2.80
2022-11-14T21:49:11.408Z,3.50
2022-11-14T21:51:39.356Z,2.87
2022-11-14T21:54:10.172Z,2.00
2022-11-14T21:56:38.428Z,2.60
2022-11-14T21:59:14.010Z,2.50
2022-11-14T22:02:01.267Z,2.90
2022-11-14T22:04:30.040Z,2.80
2022-11-14T22:06:58.849Z,3.23
2022-11-14T22:09:29.417Z,3.73
2022-11-14T22:11:58.270Z,2.90
2022-11-14T22:14:30.308Z,2.90
2022-11-14T22:16:58.895Z,3.60
2022-11-14T22:19:26.874Z,3.27
2022-11-14T22:21:55.216Z,3.80
2022-11-14T22:24:23.655Z,2.97
2022-11-14T22:26:53.000Z,3.00
2022-11-14T22:29:21.041Z,2.70
2022-11-14T22:31:52.720Z,3.30
2022-11-14T22:34:20.788Z,2.40
2022-11-14T22:36:48.768Z,3.33
2022-11-14T22:39:16.727Z,3.30
2022-11-14T22:41:44.744Z,2.77
2022-11-14T22:44:14.068Z,3.13
2022-11-14T22:46:42.133Z,2.60
2022-11-14T22:49:10.100Z,2.00
2022-11-14T22:51:38.172Z,2.57
2022-11-14T22:54:06.275Z,2.10
2022-11-14T22:56:34.354Z,2.80
2022-11-14T22:59:02.522Z,3.10
2022-11-14T23:01:33.070Z,2.53
2022-11-14T23:04:03.203Z,2.63
2022-11-14T23:06:32.925Z,2.57
2022-11-14T23:09:01.350Z,3.03
2022-11-14T23:11:31.296Z,2.47
2022-11-14T23:14:00.555Z,2.60
2022-11-14T23:16:31.876Z,2.10
2022-11-14T23:19:01.558Z,2.50
2022-11-14T23:21:32.119Z,2.13
2022-11-14T23:24:02.431Z,2.27
2022-11-14T23:26:31.732Z,3.70
2022-11-14T23:29:00.110Z,2.53
2022-11-14T23:31:28.149Z,2.57
2022-11-14T23:33:58.870Z,3.10
2022-11-14T23:36:26.868Z,2.93
2022-11-14T23:38:55.090Z,2.57
2022-11-14T23:41:25.725Z,1.97
2022-11-14T23:43:54.111Z,2.47
2022-11-14T23:46:22.151Z,2.20
2022-11-14T23:48:50.753Z,2.73
2022-11-14T23:51:20.101Z,2.33
2022-11-14T23:53:52.667Z,3.10
2022-11-14T23:56:20.623Z,3.50
2022-11-14T23:58:48.624Z,2.53
